Time;durP1;ratioP1;P1;durP2;ratioP2;P2;SDS_P1;SDS_P2;PMS_P1;PMS_P2;Temp;Humidity;BMP_temperature;BMP_pressure;BME280_temperature;BME280_humidity;BME280_pressure;Samples;Min_cycle;Max_cycle;Signal;HPM_P1;HPM_P2
2022/11/18 00:01:29;;;;;;;0.10;0.10;;;7.30;99.90;6.20;95222.00;;;;5028123;28;20199;-73
2022/11/18 00:03:58;;;;;;;0.10;0.10;;;7.20;99.90;6.20;95228.00;;;;5030349;28;20241;-71
2022/11/18 00:06:29;;;;;;;0.10;0.10;;;7.30;99.90;6.20;95215.00;;;;5028967;28;20861;-71
2022/11/18 00:09:00;;;;;;;0.10;0.10;;;7.30;99.90;6.20;95229.00;;;;5030055;28;20325;-71
2022/11/18 00:14:22;;;;;;;0.10;0.10;;;7.30;99.90;6.20;95230.00;;;;5030506;28;20293;-71
2022/11/18 00:16:54;;;;;;;0.10;0.10;;;7.30;99.90;6.20;95224.00;;;;5028756;28;20308;-71
2022/11/18 00:19:26;;;;;;;0.10;0.10;;;7.30;99.90;6.20;95229.00;;;;5028769;28;20272;-72
2022/11/18 00:21:54;;;;;;;0.10;0.10;;;7.30;99.90;6.20;95232.00;;;;5028574;28;20206;-71
2022/11/18 00:24:25;;;;;;;0.10;0.10;;;7.30;99.90;6.20;95226.00;;;;5026875;28;20701;-73
2022/11/18 00:26:53;;;;;;;0.10;0.10;;;7.30;99.90;6.20;95223.00;;;;5028105;28;20227;-72
2022/11/18 00:29:25;;;;;;;0.10;0.10;;;7.30;99.90;6.20;95252.00;;;;5009712;28;20207;-72
2022/11/18 00:31:53;;;;;;;0.10;0.10;;;7.30;99.90;6.20;95242.00;;;;5030545;28;20693;-72
2022/11/18 00:34:21;;;;;;;0.10;0.10;;;7.30;99.90;6.30;95240.00;;;;5027339;28;20257;-71
2022/11/18 00:36:49;;;;;;;0.10;0.10;;;7.30;99.90;6.30;95243.00;;;;5030143;28;20194;-71
2022/11/18 00:39:19;;;;;;;0.10;0.10;;;7.30;99.90;6.30;95241.00;;;;5024530;28;20214;-71
2022/11/18 00:44:35;;;;;;;0.10;0.10;;;7.40;99.90;6.30;95265.00;;;;4980968;28;20222;-73
2022/11/18 00:47:04;;;;;;;0.10;0.10;;;7.40;99.90;6.30;95285.00;;;;5023657;28;20614;-72
2022/11/18 00:49:33;;;;;;;0.10;0.10;;;7.40;99.90;6.30;95271.00;;;;5030037;28;20210;-71
2022/11/18 00:52:01;;;;;;;0.10;0.10;;;7.40;99.90;6.30;95259.00;;;;5009186;28;20199;-71
2022/11/18 00:54:29;;;;;;;0.10;0.10;;;7.40;99.90;6.30;95230.00;;;;5029012;28;20250;-71
2022/11/18 00:56:59;;;;;;;0.10;0.10;;;7.40;99.90;6.40;95269.00;;;;5025220;28;20203;-70
2022/11/18 00:59:27;;;;;;;0.10;0.10;;;7.50;99.90;6.40;95242.00;;;;5029859;28;20198;-72
2022/11/18 01:01:55;;;;;;;0.10;0.10;;;7.50;99.90;6.40;95244.00;;;;5025629;28;20262;-72
2022/11/18 01:04:23;;;;;;;0.10;0.10;;;7.50;99.90;6.40;95242.00;;;;5030901;28;20222;-72
2022/11/18 01:06:51;;;;;;;0.10;0.10;;;7.50;99.90;6.40;95231.00;;;;5025698;28;20226;-72
2022/11/18 01:09:19;;;;;;;0.10;0.10;;;7.50;99.90;6.10;95248.00;;;;5029862;28;20191;-72
2022/11/18 01:14:34;;;;;;;0.10;0.10;;;7.50;99.90;6.40;95245.00;;;;5026877;28;20191;-72
2022/11/18 01:17:02;;;;;;;0.10;0.10;;;7.40;99.90;6.40;95226.00;;;;5023019;28;20200;-72
2022/11/18 01:19:31;;;;;;;0.10;0.10;;;7.50;99.90;6.40;95256.00;;;;5028997;28;20541;-72
2022/11/18 01:22:01;;;;;;;0.10;0.10;;;7.50;99.90;6.50;95237.00;;;;5031436;28;20240;-72
2022/11/18 01:24:31;;;;;;;0.10;0.10;;;7.50;99.90;6.40;95218.00;;;;5029314;28;20242;-72
2022/11/18 01:27:00;;;;;;;0.10;0.10;;;7.40;99.90;6.40;95159.00;;;;5009752;28;20227;-72
2022/11/18 01:29:28;;;;;;;0.10;0.10;;;7.50;99.90;6.40;95205.00;;;;5028018;28;20201;-72
2022/11/18 01:31:57;;;;;;;0.10;0.10;;;7.40;99.90;6.40;95222.00;;;;5030967;28;20206;-71
2022/11/18 01:34:45;;;;;;;0.10;0.10;;;7.40;99.90;6.30;95208.00;;;;5029266;28;20269;-72
2022/11/18 01:37:14;;;;;;;0.10;0.10;;;7.40;99.90;6.40;95212.00;;;;5030051;28;20221;-72
2022/11/18 01:39:42;;;;;;;0.10;0.10;;;7.40;99.90;6.40;95204.00;;;;5025576;28;20230;-71
2022/11/18 01:42:15;;;;;;;0.10;0.10;;;7.40;99.90;6.40;95217.00;;;;5029052;28;20253;-72
2022/11/18 01:45:08;;;;;;;0.10;0.10;;;7.50;99.90;6.40;95221.00;;;;5029567;28;20210;-72
2022/11/18 01:47:45;;;;;;;0.10;0.10;;;7.50;99.90;6.40;95232.00;;;;5025016;28;20691;-75
2022/11/18 01:50:15;;;;;;;0.10;0.10;;;7.50;99.90;6.40;95217.00;;;;5022115;28;20194;-71
2022/11/18 01:52:44;;;;;;;0.10;0.10;;;7.50;99.90;6.40;95224.00;;;;5030728;28;20721;-71
2022/11/18 01:55:24;;;;;;;0.10;0.10;;;7.50;99.90;6.40;95226.00;;;;5028430;28;20199;-71
2022/11/18 01:58:02;;;;;;;0.10;0.10;;;7.50;99.90;6.50;95215.00;;;;5025431;28;20225;-71
2022/11/18 02:00:30;;;;;;;0.10;0.10;;;7.50;99.90;6.50;95241.00;;;;5027188;28;20206;-73
2022/11/18 02:03:02;;;;;;;0.10;0.10;;;7.50;99.90;6.50;95227.00;;;;5029459;28;20230;-72
2022/11/18 02:05:33;;;;;;;0.10;0.10;;;7.60;99.90;6.50;95233.00;;;;5029523;28;20199;-72
2022/11/18 02:08:03;;;;;;;0.08;0.08;;;7.60;99.90;6.50;95231.00;;;;5027725;28;20195;-72
2022/11/18 02:10:31;;;;;;;0.10;0.10;;;7.60;99.90;6.60;95211.00;;;;5022213;28;20204;-71
2022/11/18 02:13:00;;;;;;;0.10;0.10;;;7.60;99.90;6.60;95234.00;;;;5026801;28;20211;-73
2022/11/18 02:15:46;;;;;;;0.10;0.10;;;7.60;99.90;6.60;95234.00;;;;5026199;28;20667;-74
2022/11/18 02:18:28;;;;;;;0.10;0.10;;;7.70;99.90;6.60;95233.00;;;;5018999;28;20218;-72
2022/11/18 02:21:11;;;;;;;0.00;0.00;;;7.70;99.90;6.60;95231.00;;;;5031945;28;20195;-75
2022/11/18 02:24:28;;;;;;;0.10;0.10;;;7.70;99.90;6.60;95235.00;;;;5013678;28;20682;-73
2022/11/18 02:27:55;;;;;;;0.10;0.10;;;7.70;99.90;6.60;95242.00;;;;5026806;28;20218;-73
2022/11/18 02:30:25;;;;;;;0.10;0.10;;;7.70;99.90;6.60;95169.00;;;;5024038;28;20748;-72
2022/11/18 02:33:00;;;;;;;0.10;0.10;;;7.70;99.90;6.60;95212.00;;;;5033222;28;20280;-72
2022/11/18 02:35:39;;;;;;;0.10;0.10;;;7.70;99.90;6.50;95056.00;;;;5027636;28;20246;-73
2022/11/18 02:38:13;;;;;;;0.08;0.08;;;7.70;99.90;6.50;95046.00;;;;5025907;28;20207;-72
2022/11/18 02:40:46;;;;;;;0.00;0.00;;;7.70;99.90;6.40;94990.00;;;;5024862;28;20197;-72
2022/11/18 02:43:24;;;;;;;0.10;0.10;;;7.70;99.90;6.50;95210.00;;;;5029501;28;20293;-72
2022/11/18 02:46:00;;;;;;;0.10;0.10;;;7.60;99.90;6.40;95060.00;;;;5031076;28;20618;-73
2022/11/18 02:48:33;;;;;;;0.10;0.10;;;7.60;99.90;6.40;95085.00;;;;5023505;28;20207;-72
2022/11/18 02:51:05;;;;;;;0.10;0.10;;;7.60;99.90;6.40;95050.00;;;;5029463;28;20203;-74
2022/11/18 02:53:36;;;;;;;0.10;0.10;;;7.60;99.90;6.30;95065.00;;;;5027210;28;20219;-73
2022/11/18 02:56:06;;;;;;;0.10;0.10;;;7.60;99.90;6.30;95072.00;;;;5021668;28;20256;-73
2022/11/18 02:58:34;;;;;;;0.10;0.10;;;7.60;99.90;6.30;95046.00;;;;5031445;28;20195;-73
2022/11/18 03:01:04;;;;;;;0.10;0.10;;;7.60;99.90;6.30;95040.00;;;;5031283;28;20607;-72
2022/11/18 03:03:34;;;;;;;0.10;0.10;;;7.60;99.90;6.30;95044.00;;;;5025802;28;20230;-73
2022/11/18 03:06:13;;;;;;;0.10;0.10;;;7.50;99.90;6.30;95048.00;;;;5023778;28;20196;-73
2022/11/18 03:08:47;;;;;;;0.10;0.10;;;7.50;99.90;6.30;95033.00;;;;5030530;28;20252;-73
2022/11/18 03:11:21;;;;;;;0.10;0.10;;;7.50;99.90;6.20;95031.00;;;;5024234;28;20184;-72
2022/11/18 03:14:12;;;;;;;0.10;0.10;;;7.50;99.90;6.20;95022.00;;;;5030645;28;20207;-72
2022/11/18 03:16:54;;;;;;;0.10;0.10;;;7.50;99.90;6.30;95023.00;;;;5027295;28;20199;-72
2022/11/18 03:19:32;;;;;;;0.10;0.10;;;7.50;99.90;6.30;95030.00;;;;5023590;28;20200;-72
2022/11/18 03:22:13;;;;;;;0.10;0.10;;;7.50;99.90;6.30;95032.00;;;;5028682;28;20252;-72
2022/11/18 03:24:47;;;;;;;0.10;0.10;;;7.50;99.90;6.30;95056.00;;;;5029833;28;20200;-72
2022/11/18 03:27:24;;;;;;;0.00;0.00;;;7.60;99.90;6.40;95061.00;;;;5032695;28;20215;-73
2022/11/18 03:30:02;;;;;;;0.10;0.10;;;7.60;99.90;6.50;95055.00;;;;5026034;28;20222;-72
2022/11/18 03:32:38;;;;;;;0.10;0.10;;;7.70;99.90;6.60;95061.00;;;;5028522;28;20211;-72
2022/11/18 03:35:11;;;;;;;0.10;0.10;;;7.80;99.90;6.50;95010.00;;;;5026514;28;20199;-72
2022/11/18 03:37:43;;;;;;;0.10;0.10;;;7.70;99.90;6.50;95074.00;;;;5024161;28;20214;-73
2022/11/18 03:40:20;;;;;;;0.10;0.10;;;7.70;99.90;6.50;95086.00;;;;5023767;28;20196;-73
2022/11/18 03:42:53;;;;;;;0.10;0.10;;;7.70;99.90;6.50;95068.00;;;;5024928;28;20210;-73
2022/11/18 03:45:29;;;;;;;0.10;0.10;;;7.70;99.90;6.50;95014.00;;;;5032354;28;20204;-73
2022/11/18 03:48:05;;;;;;;0.10;0.10;;;7.70;99.90;6.50;95080.00;;;;5028352;28;20272;-72
2022/11/18 03:50:42;;;;;;;0.10;0.10;;;7.70;99.90;6.30;95072.00;;;;5032392;28;20589;-73
2022/11/18 03:53:11;;;;;;;0.00;0.00;;;7.70;99.90;6.50;95068.00;;;;5025688;28;20782;-72
2022/11/18 03:55:44;;;;;;;0.00;0.00;;;7.70;99.90;6.50;95074.00;;;;5029582;28;20203;-71
2022/11/18 03:58:22;;;;;;;0.10;0.10;;;7.70;99.90;6.50;95019.00;;;;5024156;28;20674;-72
2022/11/18 04:00:56;;;;;;;0.10;0.10;;;7.80;99.90;6.50;95021.00;;;;5024049;28;20670;-72
2022/11/18 04:03:26;;;;;;;0.10;0.10;;;7.80;99.90;6.60;95086.00;;;;5023951;28;20218;-71
2022/11/18 04:06:06;;;;;;;0.10;0.10;;;7.80;99.90;6.60;95019.00;;;;5018693;28;20199;-72
2022/11/18 04:08:40;;;;;;;0.10;0.10;;;7.80;99.90;6.60;95072.00;;;;5030111;28;20214;-71
2022/11/18 04:12:01;;;;;;;0.10;0.10;;;7.80;99.90;6.60;95103.00;;;;5028040;28;20234;-73
2022/11/18 04:14:07;;;;;;;0.10;0.10;;;7.80;99.90;6.60;95086.00;;;;5021787;28;20212;-72
2022/11/18 04:16:41;;;;;;;0.10;0.10;;;7.80;99.90;6.60;95080.00;;;;5026870;28;20190;-72
2022/11/18 04:19:10;;;;;;;0.10;0.10;;;7.90;99.90;6.60;95039.00;;;;5017109;28;20539;-72
2022/11/18 04:21:38;;;;;;;0.10;0.10;;;7.90;99.90;6.60;95063.00;;;;5028362;28;20199;-73
2022/11/18 04:24:07;;;;;;;0.10;0.10;;;7.80;99.90;6.60;95068.00;;;;5031810;28;20218;-73
2022/11/18 04:26:35;;;;;;;0.10;0.10;;;7.80;99.90;6.60;95073.00;;;;5031212;28;20203;-71
2022/11/18 04:29:04;;;;;;;0.10;0.10;;;7.90;99.90;6.70;95001.00;;;;5018192;28;20215;-71
2022/11/18 04:31:32;;;;;;;0.10;0.10;;;7.90;99.90;6.60;95075.00;;;;5031847;28;20195;-72
2022/11/18 04:34:00;;;;;;;0.10;0.10;;;7.90;99.90;6.70;95082.00;;;;5030034;28;20227;-72
2022/11/18 04:36:29;;;;;;;0.10;0.10;;;7.90;99.90;6.70;95078.00;;;;5031264;28;20249;-72
2022/11/18 04:38:57;;;;;;;0.10;0.10;;;8.00;99.90;6.80;95079.00;;;;5026252;28;20203;-72
2022/11/18 04:41:54;;;;;;;0.10;0.10;;;8.00;99.90;6.80;95070.00;;;;5020690;28;20543;-73
2022/11/18 04:44:14;;;;;;;0.10;0.10;;;8.00;99.90;6.90;95085.00;;;;5018758;28;20251;-73
2022/11/18 04:46:43;;;;;;;0.10;0.10;;;8.10;99.90;6.80;95033.00;;;;5027135;28;20195;-72
2022/11/18 04:49:15;;;;;;;0.10;0.10;;;8.00;99.90;6.80;95078.00;;;;5026852;28;20640;-73
2022/11/18 04:51:46;;;;;;;0.10;0.10;;;8.00;99.90;7.00;95265.00;;;;5019310;28;20287;-73
2022/11/18 04:54:16;;;;;;;0.10;0.10;;;8.00;99.90;6.90;95248.00;;;;5017679;28;20282;-73
2022/11/18 04:56:45;;;;;;;0.10;0.10;;;8.00;99.90;6.90;95267.00;;;;5027917;28;20257;-73
2022/11/18 04:59:20;;;;;;;0.10;0.10;;;7.90;99.90;6.90;95264.00;;;;5029237;28;20218;-71
2022/11/18 05:01:49;;;;;;;0.08;0.08;;;7.90;99.90;6.80;95284.00;;;;5026013;28;20195;-71
2022/11/18 05:04:20;;;;;;;0.10;0.10;;;7.90;99.90;6.80;95297.00;;;;5031522;28;20226;-71
2022/11/18 05:06:50;;;;;;;0.00;0.00;;;7.90;99.90;6.80;95314.00;;;;5023208;28;20215;-72
2022/11/18 05:09:19;;;;;;;0.10;0.10;;;7.80;99.90;6.70;95297.00;;;;5029316;28;20214;-72
2022/11/18 05:14:34;;;;;;;0.10;0.10;;;7.80;99.90;6.70;95271.00;;;;5023744;28;20257;-73
2022/11/18 05:17:05;;;;;;;0.10;0.10;;;7.70;99.90;6.60;95280.00;;;;5025878;28;20200;-72
2022/11/18 05:19:33;;;;;;;0.10;0.10;;;7.70;99.90;6.60;95271.00;;;;5022873;28;20203;-72
2022/11/18 05:22:03;;;;;;;0.00;0.00;;;7.70;99.90;6.60;95275.00;;;;5030749;28;20199;-73
2022/11/18 05:24:31;;;;;;;0.10;0.10;;;7.70;99.90;6.60;95285.00;;;;5024647;28;20262;-73
2022/11/18 05:26:59;;;;;;;0.10;0.10;;;7.60;99.90;6.50;95278.00;;;;5025753;28;20187;-73
2022/11/18 05:29:27;;;;;;;0.10;0.10;;;7.60;99.90;6.60;95276.00;;;;5026571;28;20215;-72
2022/11/18 05:31:55;;;;;;;0.10;0.10;;;7.60;99.90;6.50;95278.00;;;;5029564;28;20214;-72
2022/11/18 05:34:23;;;;;;;0.10;0.10;;;7.60;99.90;6.50;95286.00;;;;5023474;28;20223;-72
2022/11/18 05:36:51;;;;;;;0.10;0.10;;;7.60;99.90;6.50;95295.00;;;;5025458;28;20589;-72
2022/11/18 05:39:21;;;;;;;0.10;0.10;;;7.60;99.90;6.50;95279.00;;;;5024934;28;20219;-72
2022/11/18 05:44:35;;;;;;;0.10;0.10;;;7.60;99.90;6.50;95289.00;;;;5021495;28;20202;-73
2022/11/18 05:47:03;;;;;;;0.10;0.10;;;7.60;99.90;6.50;95274.00;;;;5023126;28;20218;-74
2022/11/18 05:49:31;;;;;;;0.10;0.10;;;7.60;99.90;6.50;95288.00;;;;5021931;28;20706;-73
2022/11/18 05:51:59;;;;;;;0.10;0.10;;;7.60;99.90;6.60;95287.00;;;;5021425;28;20195;-73
2022/11/18 05:54:29;;;;;;;0.05;0.05;;;7.60;99.90;6.50;95276.00;;;;5028774;28;20234;-73
2022/11/18 05:56:57;;;;;;;0.10;0.10;;;7.60;99.90;6.50;95287.00;;;;5024633;28;20679;-72
2022/11/18 05:59:25;;;;;;;0.05;0.05;;;7.60;99.90;6.50;95290.00;;;;5024589;28;20642;-72
2022/11/18 06:01:59;;;;;;;0.10;0.10;;;7.60;99.90;6.50;95288.00;;;;5030199;28;20203;-72
2022/11/18 06:04:32;;;;;;;0.10;0.10;;;7.60;99.90;6.60;95301.00;;;;5030696;28;20218;-72
2022/11/18 06:07:10;;;;;;;0.10;0.10;;;7.60;99.90;6.60;95320.00;;;;5030182;28;20667;-72
2022/11/18 06:09:44;;;;;;;0.10;0.10;;;7.70;99.90;6.60;95284.00;;;;5029636;28;20284;-73
2022/11/18 06:12:16;;;;;;;0.10;0.10;;;7.70;99.90;6.60;95291.00;;;;5025913;28;20199;-73
2022/11/18 06:14:51;;;;;;;0.10;0.10;;;7.70;99.90;6.60;95302.00;;;;5024440;28;20621;-75
2022/11/18 06:17:27;;;;;;;0.10;0.10;;;7.70;99.90;6.70;95287.00;;;;5025444;28;20240;-72
2022/11/18 06:19:56;;;;;;;0.10;0.10;;;7.70;99.90;6.70;95295.00;;;;5022082;28;20206;-72
2022/11/18 06:22:25;;;;;;;0.00;0.00;;;7.80;99.90;6.70;95317.00;;;;5028954;28;20249;-72
2022/11/18 06:24:55;;;;;;;0.10;0.10;;;7.70;99.90;6.70;95321.00;;;;5027756;28;20202;-73
2022/11/18 06:27:23;;;;;;;0.10;0.10;;;7.80;99.90;6.80;95332.00;;;;5026906;28;20196;-74
2022/11/18 06:29:51;;;;;;;0.00;0.00;;;7.90;99.90;6.80;95332.00;;;;5026153;28;20280;-73
2022/11/18 06:32:19;;;;;;;0.10;0.10;;;7.80;99.90;6.70;95340.00;;;;5026182;28;20237;-73
2022/11/18 06:34:47;;;;;;;0.10;0.10;;;7.80;99.90;6.70;95329.00;;;;5020780;28;20214;-73
2022/11/18 06:37:19;;;;;;;0.10;0.10;;;7.80;99.90;6.80;95339.00;;;;5025931;28;20204;-72
2022/11/18 06:39:47;;;;;;;0.10;0.10;;;7.90;99.90;6.90;95332.00;;;;5023141;28;20738;-72
2022/11/18 06:44:59;;;;;;;0.10;0.10;;;7.90;99.90;6.80;95320.00;;;;5027089;28;20202;-75
2022/11/18 06:47:27;;;;;;;0.10;0.10;;;7.90;99.90;6.80;95318.00;;;;5025021;28;20253;-73
2022/11/18 06:49:55;;;;;;;0.10;0.10;;;7.90;99.90;6.90;95325.00;;;;5030372;28;20227;-72
2022/11/18 06:52:24;;;;;;;0.10;0.10;;;8.00;99.90;6.90;95337.00;;;;5026002;28;20207;-74
2022/11/18 06:54:52;;;;;;;0.10;0.10;;;8.00;99.90;6.80;95335.00;;;;5025136;28;20218;-72
2022/11/18 06:57:22;;;;;;;0.10;0.10;;;8.00;99.90;6.80;95325.00;;;;5028998;28;20195;-72
2022/11/18 06:59:50;;;;;;;0.10;0.10;;;8.00;99.90;6.90;95321.00;;;;5029004;28;20712;-73
2022/11/18 07:02:19;;;;;;;0.10;0.10;;;8.00;99.90;6.90;95329.00;;;;5032214;28;20210;-73
2022/11/18 07:04:48;;;;;;;0.10;0.10;;;8.00;99.90;6.80;95337.00;;;;5028954;28;20203;-76
2022/11/18 07:07:16;;;;;;;0.10;0.10;;;7.90;99.90;6.80;95338.00;;;;5026962;28;20196;-75
2022/11/18 07:09:45;;;;;;;0.10;0.10;;;7.90;99.90;6.80;95341.00;;;;5032938;28;20660;-75
2022/11/18 07:12:14;;;;;;;0.10;0.10;;;7.90;99.90;6.80;95323.00;;;;5034733;28;20187;-74
2022/11/18 07:14:44;;;;;;;0.10;0.10;;;7.90;99.90;6.90;95327.00;;;;5028037;28;20195;-75
2022/11/18 07:17:13;;;;;;;0.10;0.10;;;7.90;99.90;6.90;95323.00;;;;5033178;28;20222;-74
2022/11/18 07:19:41;;;;;;;0.00;0.00;;;8.00;99.90;7.00;95320.00;;;;5033193;28;20214;-75
2022/11/18 07:22:09;;;;;;;0.10;0.10;;;8.00;99.90;7.00;95339.00;;;;5026065;28;20195;-75
2022/11/18 07:24:37;;;;;;;0.03;0.03;;;8.10;99.90;7.00;95335.00;;;;5022153;28;20619;-75
2022/11/18 07:27:06;;;;;;;0.10;0.10;;;8.10;99.90;7.00;95344.00;;;;5021008;28;20223;-75
2022/11/18 07:29:34;;;;;;;0.10;0.10;;;8.10;99.90;7.00;95345.00;;;;5023943;28;20284;-75
2022/11/18 07:32:03;;;;;;;0.00;0.00;;;8.10;99.90;7.00;95334.00;;;;5028840;28;20326;-75
2022/11/18 07:34:34;;;;;;;0.00;0.00;;;8.20;99.90;7.10;95351.00;;;;5032359;28;20671;-75
2022/11/18 07:37:02;;;;;;;0.10;0.10;;;8.20;99.90;7.20;95364.00;;;;5021727;28;20225;-75
2022/11/18 07:39:30;;;;;;;0.10;0.10;;;8.30;99.90;7.20;95374.00;;;;5023243;28;20246;-75
2022/11/18 07:41:58;;;;;;;0.10;0.10;;;8.40;99.90;7.30;95389.00;;;;5026826;28;20203;-75
2022/11/18 07:44:26;;;;;;;0.10;0.10;;;8.40;99.90;7.20;95261.00;;;;5029282;28;20230;-75
2022/11/18 07:46:54;;;;;;;0.10;0.10;;;8.40;99.90;7.20;95374.00;;;;5030732;28;20551;-75
2022/11/18 07:49:24;;;;;;;0.10;0.10;;;8.30;99.90;7.20;95388.00;;;;5030300;28;20219;-75
2022/11/18 07:51:53;;;;;;;0.10;0.10;;;8.40;99.90;7.30;95383.00;;;;5016742;28;20202;-75
2022/11/18 07:54:21;;;;;;;0.10;0.10;;;8.40;99.90;7.40;95392.00;;;;5030816;28;20261;-75
2022/11/18 07:56:49;;;;;;;0.10;0.10;;;8.50;99.90;7.40;95404.00;;;;5023263;28;20217;-75
2022/11/18 07:59:17;;;;;;;0.10;0.10;;;8.50;99.90;7.50;95404.00;;;;5029280;28;20199;-77
2022/11/18 08:01:45;;;;;;;0.10;0.10;;;8.50;99.90;7.60;95396.00;;;;5030142;28;20654;-76
2022/11/18 08:04:14;;;;;;;0.10;0.10;;;8.60;99.90;7.70;95396.00;;;;5027870;28;20299;-76
2022/11/18 08:06:44;;;;;;;0.10;0.10;;;8.70;99.90;7.70;95408.00;;;;5023160;28;20666;-76
2022/11/18 08:09:12;;;;;;;0.10;0.10;;;8.70;99.90;7.70;95400.00;;;;5022954;28;20257;-76
2022/11/18 08:11:41;;;;;;;0.00;0.00;;;8.70;99.90;7.70;95411.00;;;;5031224;28;20194;-75
2022/11/18 08:14:09;;;;;;;0.10;0.10;;;8.70;99.90;7.60;95411.00;;;;5026906;28;20277;-75
2022/11/18 08:16:37;;;;;;;0.10;0.10;;;8.70;99.90;7.50;95411.00;;;;5018083;28;20249;-75
2022/11/18 08:19:05;;;;;;;0.10;0.10;;;8.60;99.90;7.50;95398.00;;;;5021009;28;20235;-76
2022/11/18 08:21:33;;;;;;;0.10;0.10;;;8.60;99.90;7.50;95399.00;;;;5029695;28;20249;-76
2022/11/18 08:24:03;;;;;;;0.10;0.10;;;8.60;99.90;7.40;95391.00;;;;5029244;28;20229;-76
2022/11/18 08:26:31;;;;;;;0.10;0.10;;;8.50;99.90;7.40;95404.00;;;;5027482;28;20593;-76
2022/11/18 08:28:59;;;;;;;0.00;0.00;;;8.40;99.90;7.30;95403.00;;;;5024443;28;20198;-75
2022/11/18 08:31:30;;;;;;;0.10;0.10;;;8.40;99.90;7.30;95346.00;;;;5021036;28;20195;-76
2022/11/18 08:34:01;;;;;;;0.10;0.10;;;8.40;99.90;7.30;95412.00;;;;5024693;28;20223;-76
2022/11/18 08:36:31;;;;;;;0.10;0.10;;;8.40;99.90;7.30;95412.00;;;;5028622;28;20282;-76
2022/11/18 08:39:05;;;;;;;0.00;0.00;;;8.40;99.90;7.30;95414.00;;;;5027025;28;20654;-76
2022/11/18 08:41:37;;;;;;;0.10;0.10;;;8.40;99.90;7.30;95410.00;;;;5028311;28;20262;-76
2022/11/18 08:44:08;;;;;;;0.10;0.10;;;8.40;99.90;7.40;95427.00;;;;5020574;28;20226;-76
2022/11/18 08:46:36;;;;;;;0.10;0.10;;;8.40;99.90;7.40;95419.00;;;;5022979;28;20196;-76
2022/11/18 08:49:04;;;;;;;0.10;0.10;;;8.40;99.90;7.30;95421.00;;;;5024718;28;20187;-76
2022/11/18 08:51:33;;;;;;;0.10;0.10;;;8.40;99.90;7.40;95425.00;;;;5024031;28;20247;-76
2022/11/18 08:54:02;;;;;;;0.10;0.10;;;8.40;99.90;7.40;95434.00;;;;5024175;28;20341;-76
2022/11/18 08:56:31;;;;;;;0.00;0.00;;;8.40;99.90;7.40;95440.00;;;;5025815;28;20253;-76
2022/11/18 08:58:59;;;;;;;0.10;0.10;;;8.40;99.90;7.30;95429.00;;;;5025891;28;20663;-75
2022/11/18 09:01:27;;;;;;;0.10;0.10;;;8.40;99.90;7.30;95433.00;;;;5023690;28;20191;-76
2022/11/18 09:03:56;;;;;;;0.10;0.10;;;8.40;99.90;7.40;95444.00;;;;5028995;28;20237;-75
2022/11/18 09:06:25;;;;;;;0.10;0.10;;;8.30;99.90;7.30;95441.00;;;;5029263;28;20195;-75
2022/11/18 09:08:54;;;;;;;0.10;0.10;;;8.30;99.90;7.30;95438.00;;;;5018867;28;20212;-75
2022/11/18 09:11:26;;;;;;;0.10;0.10;;;8.30;99.90;7.30;95430.00;;;;5030165;28;20215;-75
2022/11/18 09:13:57;;;;;;;0.08;0.08;;;8.30;99.90;7.30;95445.00;;;;5018763;28;20280;-75
2022/11/18 09:16:45;;;;;;;0.10;0.10;;;8.40;99.90;7.20;95367.00;;;;5024968;28;20195;-75
2022/11/18 09:19:16;;;;;;;0.10;0.10;;;8.30;99.90;7.20;95438.00;;;;5016096;28;20657;-76
2022/11/18 09:22:05;;;;;;;0.10;0.10;;;8.20;99.90;7.10;95423.00;;;;5025906;28;20223;-76
2022/11/18 09:24:34;;;;;;;0.10;0.10;;;8.20;99.90;7.00;95445.00;;;;5025813;28;20555;-76
2022/11/18 09:27:06;;;;;;;0.10;0.10;;;8.10;99.90;6.90;95425.00;;;;5026471;28;20269;-76
2022/11/18 09:29:42;;;;;;;0.10;0.10;;;8.00;99.90;6.80;95422.00;;;;5027065;28;20250;-76
2022/11/18 09:32:10;;;;;;;0.10;0.10;;;8.00;99.90;6.80;95433.00;;;;5031872;28;20199;-75
2022/11/18 09:34:38;;;;;;;0.10;0.10;;;7.90;99.90;6.70;95427.00;;;;5031722;28;20896;-77
2022/11/18 09:37:07;;;;;;;0.10;0.10;;;7.80;99.90;6.70;95438.00;;;;5024787;28;20253;-76
2022/11/18 09:39:36;;;;;;;0.10;0.10;;;7.80;99.90;6.70;95449.00;;;;5025394;28;20202;-76
2022/11/18 09:42:29;;;;;;;0.10;0.10;;;7.80;99.90;6.70;95443.00;;;;5033612;28;20195;-76
2022/11/18 09:45:17;;;;;;;0.10;0.10;;;7.70;99.90;6.70;95453.00;;;;5030190;28;20203;-77
2022/11/18 09:47:55;;;;;;;0.03;0.03;;;7.70;99.90;6.60;95384.00;;;;5027230;28;20206;-76
2022/11/18 09:50:24;;;;;;;0.10;0.10;;;7.70;99.90;6.60;95465.00;;;;5025149;28;20270;-75
2022/11/18 09:53:19;;;;;;;0.10;0.10;;;7.70;99.90;6.50;95474.00;;;;5020965;28;20215;-75
2022/11/18 09:55:49;;;;;;;0.10;0.10;;;7.60;99.90;6.40;95393.00;;;;5028117;28;20198;-76
2022/11/18 09:58:27;;;;;;;0.10;0.10;;;7.50;99.90;6.20;95462.00;;;;5025740;28;20199;-77
2022/11/18 10:00:55;;;;;;;0.10;0.10;;;7.40;99.90;6.30;95466.00;;;;5029468;28;20305;-77
2022/11/18 10:03:28;;;;;;;0.10;0.10;;;7.40;99.90;6.00;95461.00;;;;5022164;28;20281;-76
2022/11/18 10:06:05;;;;;;;0.10;0.10;;;7.30;99.90;6.20;95471.00;;;;5033624;28;20230;-78
2022/11/18 10:08:43;;;;;;;0.10;0.10;;;7.30;99.90;6.20;95481.00;;;;5029225;28;20191;-76
2022/11/18 10:11:17;;;;;;;0.10;0.10;;;7.30;99.90;6.10;95477.00;;;;5030634;28;20206;-76
2022/11/18 10:14:04;;;;;;;0.10;0.10;;;7.30;99.90;6.20;95476.00;;;;5023938;28;20607;-76
2022/11/18 10:16:48;;;;;;;0.10;0.10;;;7.30;99.90;6.20;95498.00;;;;5030382;28;20566;-76
2022/11/18 10:19:33;;;;;;;0.10;0.10;;;7.20;99.90;6.20;95447.00;;;;5020287;28;20191;-76
2022/11/18 10:22:18;;;;;;;0.10;0.10;;;7.20;99.90;6.10;95516.00;;;;5023061;28;20214;-78
2022/11/18 10:24:54;;;;;;;0.10;0.10;;;7.20;99.90;6.00;95496.00;;;;5024612;28;20196;-78
2022/11/18 10:27:33;;;;;;;0.10;0.10;;;7.10;99.90;5.90;95515.00;;;;5033977;28;20257;-76
2022/11/18 10:30:12;;;;;;;0.10;0.10;;;7.10;99.90;5.70;95506.00;;;;5028678;28;20246;-76
2022/11/18 10:32:57;;;;;;;0.10;0.10;;;6.90;99.90;5.70;95504.00;;;;5021884;28;20226;-76
2022/11/18 10:35:31;;;;;;;0.08;0.08;;;6.90;99.90;5.70;95513.00;;;;5029900;28;20191;-75
2022/11/18 10:38:04;;;;;;;0.10;0.10;;;6.80;99.90;5.70;95507.00;;;;5029573;28;20233;-75
2022/11/18 10:40:43;;;;;;;0.10;0.10;;;6.80;99.90;5.60;95502.00;;;;5023340;28;20199;-76
2022/11/18 10:43:13;;;;;;;0.10;0.10;;;6.80;99.90;5.60;95516.00;;;;5022505;28;20269;-75
2022/11/18 10:45:43;;;;;;;0.10;0.10;;;6.70;99.90;5.60;95505.00;;;;5024281;28;20211;-76
2022/11/18 10:48:19;;;;;;;0.10;0.10;;;6.70;99.90;5.50;95504.00;;;;5028058;28;20199;-76
2022/11/18 10:50:50;;;;;;;0.10;0.10;;;6.70;99.90;5.40;95513.00;;;;5025870;28;20214;-75
2022/11/18 10:53:32;;;;;;;0.10;0.10;;;6.60;99.90;5.40;95513.00;;;;5027366;28;20211;-76
2022/11/18 10:56:04;;;;;;;0.10;0.10;;;6.50;99.90;5.40;95509.00;;;;5027331;28;20206;-75
2022/11/18 10:58:44;;;;;;;0.00;0.00;;;6.50;99.90;5.40;95528.00;;;;5028514;28;20195;-75
2022/11/18 11:01:23;;;;;;;0.10;0.10;;;6.50;99.90;5.40;95529.00;;;;5026541;28;20199;-76
2022/11/18 11:04:00;;;;;;;0.10;0.10;;;6.50;99.90;5.50;95515.00;;;;5029700;28;20253;-76
2022/11/18 11:06:36;;;;;;;0.10;0.10;;;6.50;99.90;5.50;95518.00;;;;5028086;28;20198;-76
2022/11/18 11:09:09;;;;;;;0.10;0.10;;;6.60;99.90;5.50;95525.00;;;;5029406;28;20199;-76
2022/11/18 11:11:43;;;;;;;0.10;0.10;;;6.60;99.90;5.50;95538.00;;;;5031829;28;20238;-77
2022/11/18 11:14:22;;;;;;;0.10;0.10;;;6.60;99.90;5.40;95532.00;;;;5017093;28;20230;-76
2022/11/18 11:17:02;;;;;;;0.10;0.10;;;6.50;99.90;5.40;95533.00;;;;5023286;28;20261;-75
2022/11/18 11:19:43;;;;;;;0.00;0.00;;;6.50;99.90;5.20;95537.00;;;;5029911;28;20199;-75
2022/11/18 11:22:12;;;;;;;0.05;0.05;;;6.40;99.90;5.20;95539.00;;;;5027520;28;20203;-76
2022/11/18 11:24:41;;;;;;;0.10;0.10;;;6.40;99.90;4.90;95547.00;;;;5027551;28;20195;-77
2022/11/18 11:27:33;;;;;;;0.10;0.10;;;6.20;99.90;4.90;95541.00;;;;5004072;28;20218;-75
2022/11/18 11:30:23;;;;;;;0.10;0.10;;;6.10;99.90;5.10;95561.00;;;;5025712;28;20286;-78
2022/11/18 11:33:22;;;;;;;0.10;0.10;;;6.10;99.90;4.90;95543.00;;;;5031174;28;20261;-77
2022/11/18 11:36:12;;;;;;;0.10;0.10;;;6.10;99.90;5.00;95554.00;;;;5026150;28;20203;-77
2022/11/18 11:38:59;;;;;;;0.10;0.10;;;6.10;99.90;5.10;95544.00;;;;5028297;28;20203;-77
2022/11/18 11:41:47;;;;;;;0.10;0.10;;;6.10;99.90;5.00;95546.00;;;;5021256;28;20737;-76
2022/11/18 11:44:32;;;;;;;0.10;0.10;;;6.10;99.90;5.00;95547.00;;;;5029181;28;20218;-76
2022/11/18 11:50:27;;;;;;;0.10;0.10;;;6.10;99.90;4.80;95548.00;;;;4969666;28;20196;-77
2022/11/18 11:53:16;;;;;;;0.10;0.10;;;6.00;99.90;4.70;95561.00;;;;5014007;28;20238;-76
2022/11/18 11:56:04;;;;;;;0.10;0.10;;;5.90;99.90;4.60;95553.00;;;;5021956;28;20207;-76